sensor_id;sensor_type;location;lat;lon;timestamp;temperature;humidity
16060;DHT22;8134;49.552;7.632;2022-10-16T08:17:35;16.10;99.90
16060;DHT22;8134;49.552;7.632;2022-10-16T08:20:01;16.10;99.90
16060;DHT22;8134;49.552;7.632;2022-10-16T08:22:27;16.20;99.90
16060;DHT22;8134;49.552;7.632;2022-10-16T08:24:52;16.20;99.90
16060;DHT22;8134;49.552;7.632;2022-10-16T08:27:18;16.20;99.90
16060;DHT22;8134;49.552;7.632;2022-10-16T08:29:43;16.20;99.90
16060;DHT22;8134;49.552;7.632;2022-10-16T08:32:09;16.30;99.90
16060;DHT22;8134;49.552;7.632;2022-10-16T08:34:34;16.40;99.90
16060;DHT22;8134;49.552;7.632;2022-10-16T08:37:00;16.50;99.90
16060;DHT22;8134;49.552;7.632;2022-10-16T08:39:25;16.60;99.90
16060;DHT22;8134;49.552;7.632;2022-10-16T08:49:19;16.90;99.90
16060;DHT22;8134;49.552;7.632;2022-10-16T08:51:44;16.90;99.90
16060;DHT22;8134;49.552;7.632;2022-10-16T08:56:40;17.10;99.90
16060;DHT22;8134;49.552;7.632;2022-10-16T08:59:06;17.10;99.90
16060;DHT22;8134;49.552;7.632;2022-10-16T09:01:37;17.20;99.90
16060;DHT22;8134;49.552;7.632;2022-10-16T09:04:13;17.30;99.90
16060;DHT22;8134;49.552;7.632;2022-10-16T09:11:49;17.30;99.90
16060;DHT22;8134;49.552;7.632;2022-10-16T09:16:45;17.40;99.90
16060;DHT22;8134;49.552;7.632;2022-10-16T09:19:23;17.40;99.90
16060;DHT22;8134;49.552;7.632;2022-10-16T09:21:51;17.40;99.90
16060;DHT22;8134;49.552;7.632;2022-10-16T09:24:19;17.50;99.90
16060;DHT22;8134;49.552;7.632;2022-10-16T09:26:45;17.60;99.90
16060;DHT22;8134;49.552;7.632;2022-10-16T09:29:14;17.60;99.90
16060;DHT22;8134;49.552;7.632;2022-10-16T09:31:41;17.70;99.90
16060;DHT22;8134;49.552;7.632;2022-10-16T09:34:08;17.80;99.90
16060;DHT22;8134;49.552;7.632;2022-10-16T09:36:40;17.90;99.90
16060;DHT22;8134;49.552;7.632;2022-10-16T09:39:08;17.90;99.90
16060;DHT22;8134;49.552;7.632;2022-10-16T09:41:37;17.90;99.90
16060;DHT22;8134;49.552;7.632;2022-10-16T09:44:04;18.00;99.90
16060;DHT22;8134;49.552;7.632;2022-10-16T09:46:32;18.10;99.90
16060;DHT22;8134;49.552;7.632;2022-10-16T09:49:49;18.10;99.90
16060;DHT22;8134;49.552;7.632;2022-10-16T09:51:43;18.20;99.90
16060;DHT22;8134;49.552;7.632;2022-10-16T09:56:35;18.40;99.90
16060;DHT22;8134;49.552;7.632;2022-10-16T09:59:10;18.40;99.90
16060;DHT22;8134;49.552;7.632;2022-10-16T10:01:36;18.40;99.90
16060;DHT22;8134;49.552;7.632;2022-10-16T10:04:03;18.50;99.90
16060;DHT22;8134;49.552;7.632;2022-10-16T10:06:51;18.60;99.90
16060;DHT22;8134;49.552;7.632;2022-10-16T10:11:43;18.60;99.90
16060;DHT22;8134;49.552;7.632;2022-10-16T10:14:13;18.70;99.90
16060;DHT22;8134;49.552;7.632;2022-10-16T10:16:40;18.70;99.90
16060;DHT22;8134;49.552;7.632;2022-10-16T10:19:12;18.70;99.90
16060;DHT22;8134;49.552;7.632;2022-10-16T10:21:38;18.70;99.90
16060;DHT22;8134;49.552;7.632;2022-10-16T10:24:04;18.70;99.90
16060;DHT22;8134;49.552;7.632;2022-10-16T10:26:30;18.70;99.90
16060;DHT22;8134;49.552;7.632;2022-10-16T10:31:34;18.80;99.90
16060;DHT22;8134;49.552;7.632;2022-10-16T10:34:11;18.70;99.90
16060;DHT22;8134;49.552;7.632;2022-10-16T10:36:40;18.80;99.90
16060;DHT22;8134;49.552;7.632;2022-10-16T10:39:25;18.80;99.90
16060;DHT22;8134;49.552;7.632;2022-10-16T10:46:55;18.80;99.90
16060;DHT22;8134;49.552;7.632;2022-10-16T10:59:43;18.80;99.90
16060;DHT22;8134;49.552;7.632;2022-10-16T11:04:52;18.80;99.90
16060;DHT22;8134;49.552;7.632;2022-10-16T11:09:49;18.90;99.90
16060;DHT22;8134;49.552;7.632;2022-10-16T11:12:21;19.00;99.90
16060;DHT22;8134;49.552;7.632;2022-10-16T11:17:24;19.00;99.90
16060;DHT22;8134;49.552;7.632;2022-10-16T11:22:22;19.10;99.90
16060;DHT22;8134;49.552;7.632;2022-10-16T11:24:54;19.10;99.90
16060;DHT22;8134;49.552;7.632;2022-10-16T11:27:26;19.10;99.90
16060;DHT22;8134;49.552;7.632;2022-10-16T11:30:01;19.00;99.90
16060;DHT22;8134;49.552;7.632;2022-10-16T11:32:28;18.90;99.90
16060;DHT22;8134;49.552;7.632;2022-10-16T11:35:02;18.90;99.90
16060;DHT22;8134;49.552;7.632;2022-10-16T11:37:35;19.00;99.90
16060;DHT22;8134;49.552;7.632;2022-10-16T11:40:15;19.10;99.90
16060;DHT22;8134;49.552;7.632;2022-10-16T11:42:44;19.10;99.90
16060;DHT22;8134;49.552;7.632;2022-10-16T11:47:41;19.10;99.90
16060;DHT22;8134;49.552;7.632;2022-10-16T11:50:12;19.20;99.90
16060;DHT22;8134;49.552;7.632;2022-10-16T11:52:53;19.30;99.90
16060;DHT22;8134;49.552;7.632;2022-10-16T11:55:22;19.30;99.90
16060;DHT22;8134;49.552;7.632;2022-10-16T11:57:51;19.50;99.90
16060;DHT22;8134;49.552;7.632;2022-10-16T12:07:56;20.00;99.90
16060;DHT22;8134;49.552;7.632;2022-10-16T12:10:26;20.00;99.90
16060;DHT22;8134;49.552;7.632;2022-10-16T12:12:53;20.00;99.90
16060;DHT22;8134;49.552;7.632;2022-10-16T12:15:29;20.10;99.90
16060;DHT22;8134;49.552;7.632;2022-10-16T12:17:55;20.10;99.90
16060;DHT22;8134;49.552;7.632;2022-10-16T12:22:50;19.80;99.90
16060;DHT22;8134;49.552;7.632;2022-10-16T12:25:35;19.70;99.90
16060;DHT22;8134;49.552;7.632;2022-10-16T12:28:02;19.70;99.90
16060;DHT22;8134;49.552;7.632;2022-10-16T12:30:30;19.50;99.90
16060;DHT22;8134;49.552;7.632;2022-10-16T12:32:57;19.50;99.90
16060;DHT22;8134;49.552;7.632;2022-10-16T12:35:27;19.50;99.90
16060;DHT22;8134;49.552;7.632;2022-10-16T12:37:53;19.60;99.90
16060;DHT22;8134;49.552;7.632;2022-10-16T12:40:26;19.60;99.90
16060;DHT22;8134;49.552;7.632;2022-10-16T12:42:53;19.50;99.90
16060;DHT22;8134;49.552;7.632;2022-10-16T12:45:26;19.50;99.90
16060;DHT22;8134;49.552;7.632;2022-10-16T12:47:52;19.50;99.90
16060;DHT22;8134;49.552;7.632;2022-10-16T12:50:33;19.30;99.90
16060;DHT22;8134;49.552;7.632;2022-10-16T12:52:59;19.30;99.90
16060;DHT22;8134;49.552;7.632;2022-10-16T12:55:25;19.20;99.90
16060;DHT22;8134;49.552;7.632;2022-10-16T12:58:00;19.20;99.90
16060;DHT22;8134;49.552;7.632;2022-10-16T13:11:03;19.30;99.90
16060;DHT22;8134;49.552;7.632;2022-10-16T13:23:46;19.80;99.90
16060;DHT22;8134;49.552;7.632;2022-10-16T13:28:45;19.90;99.90
16060;DHT22;8134;49.552;7.632;2022-10-16T13:31:13;19.80;99.90
16060;DHT22;8134;49.552;7.632;2022-10-16T13:33:40;19.70;99.90
16060;DHT22;8134;49.552;7.632;2022-10-16T13:36:17;19.80;99.90
16060;DHT22;8134;49.552;7.632;2022-10-16T13:38:43;19.80;99.90
16060;DHT22;8134;49.552;7.632;2022-10-16T13:41:14;19.80;99.90
16060;DHT22;8134;49.552;7.632;2022-10-16T13:43:44;19.80;99.90
16060;DHT22;8134;49.552;7.632;2022-10-16T13:46:12;19.80;99.90
16060;DHT22;8134;49.552;7.632;2022-10-16T13:48:38;19.80;99.90
16060;DHT22;8134;49.552;7.632;2022-10-16T13:51:14;19.80;99.90
16060;DHT22;8134;49.552;7.632;2022-10-16T13:53:39;19.80;99.90
16060;DHT22;8134;49.552;7.632;2022-10-16T13:56:16;19.80;99.90
16060;DHT22;8134;49.552;7.632;2022-10-16T13:58:42;19.80;99.90
16060;DHT22;8134;49.552;7.632;2022-10-16T14:01:22;19.80;99.90
16060;DHT22;8134;49.552;7.632;2022-10-16T14:03:49;19.70;99.90
16060;DHT22;8134;49.552;7.632;2022-10-16T14:06:19;19.70;99.90
16060;DHT22;8134;49.552;7.632;2022-10-16T14:09:09;19.70;99.90
16060;DHT22;8134;49.552;7.632;2022-10-16T14:11:33;19.70;99.90
16060;DHT22;8134;49.552;7.632;2022-10-16T14:13:59;19.70;99.90
16060;DHT22;8134;49.552;7.632;2022-10-16T14:16:27;19.80;99.90
16060;DHT22;8134;49.552;7.632;2022-10-16T14:18:57;19.80;99.90
16060;DHT22;8134;49.552;7.632;2022-10-16T14:21:23;19.80;99.90
16060;DHT22;8134;49.552;7.632;2022-10-16T14:23:49;19.90;99.90
16060;DHT22;8134;49.552;7.632;2022-10-16T14:26:16;19.90;99.90
16060;DHT22;8134;49.552;7.632;2022-10-16T14:28:42;19.90;99.90
16060;DHT22;8134;49.552;7.632;2022-10-16T14:33:46;20.00;99.90
16060;DHT22;8134;49.552;7.632;2022-10-16T14:36:12;20.10;99.90
16060;DHT22;8134;49.552;7.632;2022-10-16T14:38:38;20.10;99.90
16060;DHT22;8134;49.552;7.632;2022-10-16T14:41:05;20.10;99.90
16060;DHT22;8134;49.552;7.632;2022-10-16T14:43:32;20.00;99.90
16060;DHT22;8134;49.552;7.632;2022-10-16T14:45:58;19.90;99.90
16060;DHT22;8134;49.552;7.632;2022-10-16T14:48:24;19.90;99.90
16060;DHT22;8134;49.552;7.632;2022-10-16T14:50:49;19.80;99.90
16060;DHT22;8134;49.552;7.632;2022-10-16T14:53:15;19.90;99.90
16060;DHT22;8134;49.552;7.632;2022-10-16T14:55:41;19.90;99.90
16060;DHT22;8134;49.552;7.632;2022-10-16T14:58:16;19.90;99.90
16060;DHT22;8134;49.552;7.632;2022-10-16T15:00:43;19.80;99.90
16060;DHT22;8134;49.552;7.632;2022-10-16T15:03:08;19.70;99.90
16060;DHT22;8134;49.552;7.632;2022-10-16T15:05:34;19.70;99.90
16060;DHT22;8134;49.552;7.632;2022-10-16T15:07:59;19.60;99.90
16060;DHT22;8134;49.552;7.632;2022-10-16T15:10:25;19.60;99.90
16060;DHT22;8134;49.552;7.632;2022-10-16T15:12:52;19.50;99.90
16060;DHT22;8134;49.552;7.632;2022-10-16T15:17:46;19.30;99.90
16060;DHT22;8134;49.552;7.632;2022-10-16T15:20:11;19.30;99.90
16060;DHT22;8134;49.552;7.632;2022-10-16T15:22:36;19.30;99.90
16060;DHT22;8134;49.552;7.632;2022-10-16T15:25:07;19.30;99.90
16060;DHT22;8134;49.552;7.632;2022-10-16T15:27:35;19.30;99.90
16060;DHT22;8134;49.552;7.632;2022-10-16T15:30:05;19.30;99.90
16060;DHT22;8134;49.552;7.632;2022-10-16T15:32:30;19.20;99.90
16060;DHT22;8134;49.552;7.632;2022-10-16T15:34:56;19.20;99.90
16060;DHT22;8134;49.552;7.632;2022-10-16T15:37:21;19.10;99.90
16060;DHT22;8134;49.552;7.632;2022-10-16T15:39:47;19.00;99.90
16060;DHT22;8134;49.552;7.632;2022-10-16T15:42:15;19.00;99.90
16060;DHT22;8134;49.552;7.632;2022-10-16T15:44:40;18.90;99.90
16060;DHT22;8134;49.552;7.632;2022-10-16T15:47:07;18.90;99.90
16060;DHT22;8134;49.552;7.632;2022-10-16T15:49:33;18.80;99.90
16060;DHT22;8134;49.552;7.632;2022-10-16T15:51:58;18.80;99.90
16060;DHT22;8134;49.552;7.632;2022-10-16T15:54:23;18.70;99.90
16060;DHT22;8134;49.552;7.632;2022-10-16T15:56:49;18.80;99.90
16060;DHT22;8134;49.552;7.632;2022-10-16T15:59:14;18.70;99.90
16060;DHT22;8134;49.552;7.632;2022-10-16T16:01:40;18.70;99.90
16060;DHT22;8134;49.552;7.632;2022-10-16T16:04:06;18.70;99.90
16060;DHT22;8134;49.552;7.632;2022-10-16T16:06:31;18.60;99.90
16060;DHT22;8134;49.552;7.632;2022-10-16T16:08:57;18.50;99.90
16060;DHT22;8134;49.552;7.632;2022-10-16T16:11:24;18.50;99.90
16060;DHT22;8134;49.552;7.632;2022-10-16T16:13:50;18.40;99.90
16060;DHT22;8134;49.552;7.632;2022-10-16T16:16:16;18.30;99.90
16060;DHT22;8134;49.552;7.632;2022-10-16T16:18:42;18.30;99.90
16060;DHT22;8134;49.552;7.632;2022-10-16T16:21:08;18.30;99.90
16060;DHT22;8134;49.552;7.632;2022-10-16T16:23:34;18.20;99.90
16060;DHT22;8134;49.552;7.632;2022-10-16T16:26:04;18.20;99.90
16060;DHT22;8134;49.552;7.632;2022-10-16T16:28:30;18.10;99.90
16060;DHT22;8134;49.552;7.632;2022-10-16T16:30:55;18.00;99.90
16060;DHT22;8134;49.552;7.632;2022-10-16T16:33:21;17.80;99.90
16060;DHT22;8134;49.552;7.632;2022-10-16T16:35:46;17.70;99.90
16060;DHT22;8134;49.552;7.632;2022-10-16T16:38:12;17.50;99.90
16060;DHT22;8134;49.552;7.632;2022-10-16T16:40:37;17.40;99.90
16060;DHT22;8134;49.552;7.632;2022-10-16T16:43:03;17.30;99.90
16060;DHT22;8134;49.552;7.632;2022-10-16T16:45:29;17.20;99.90
16060;DHT22;8134;49.552;7.632;2022-10-16T16:47:54;17.10;99.90
16060;DHT22;8134;49.552;7.632;2022-10-16T16:50:20;17.00;99.90
16060;DHT22;8134;49.552;7.632;2022-10-16T16:52:45;17.00;99.90
16060;DHT22;8134;49.552;7.632;2022-10-16T16:55:11;16.90;99.90
16060;DHT22;8134;49.552;7.632;2022-10-16T16:57:36;16.80;99.90
16060;DHT22;8134;49.552;7.632;2022-10-16T17:00:02;16.80;99.90
16060;DHT22;8134;49.552;7.632;2022-10-16T17:02:28;16.70;99.90
16060;DHT22;8134;49.552;7.632;2022-10-16T17:04:53;16.70;99.90
16060;DHT22;8134;49.552;7.632;2022-10-16T17:07:21;16.60;99.90
16060;DHT22;8134;49.552;7.632;2022-10-16T17:09:47;16.50;99.90
16060;DHT22;8134;49.552;7.632;2022-10-16T17:12:12;16.40;99.90
16060;DHT22;8134;49.552;7.632;2022-10-16T17:14:38;16.40;99.90
16060;DHT22;8134;49.552;7.632;2022-10-16T17:17:03;16.30;99.90
16060;DHT22;8134;49.552;7.632;2022-10-16T17:19:32;16.30;99.90
16060;DHT22;8134;49.552;7.632;2022-10-16T17:21:57;16.20;99.90
16060;DHT22;8134;49.552;7.632;2022-10-16T17:24:23;16.20;99.90
16060;DHT22;8134;49.552;7.632;2022-10-16T17:26:49;16.10;99.90
16060;DHT22;8134;49.552;7.632;2022-10-16T17:29:15;16.00;99.90
16060;DHT22;8134;49.552;7.632;2022-10-16T17:31:42;16.00;99.90
16060;DHT22;8134;49.552;7.632;2022-10-16T17:34:08;16.00;99.90
16060;DHT22;8134;49.552;7.632;2022-10-16T17:36:35;16.00;99.90
16060;DHT22;8134;49.552;7.632;2022-10-16T17:39:02;16.00;99.90
16060;DHT22;8134;49.552;7.632;2022-10-16T17:41:29;15.90;99.90
16060;DHT22;8134;49.552;7.632;2022-10-16T17:43:55;15.90;99.90
16060;DHT22;8134;49.552;7.632;2022-10-16T17:46:21;15.90;99.90
16060;DHT22;8134;49.552;7.632;2022-10-16T17:48:47;15.90;99.90
16060;DHT22;8134;49.552;7.632;2022-10-16T17:51:15;16.00;99.90
16060;DHT22;8134;49.552;7.632;2022-10-16T17:53:41;16.10;99.90
16060;DHT22;8134;49.552;7.632;2022-10-16T17:56:11;16.10;99.90
16060;DHT22;8134;49.552;7.632;2022-10-16T17:58:38;16.20;99.90
16060;DHT22;8134;49.552;7.632;2022-10-16T18:01:11;16.20;99.90
16060;DHT22;8134;49.552;7.632;2022-10-16T18:03:36;16.20;99.90
16060;DHT22;8134;49.552;7.632;2022-10-16T18:06:02;16.20;99.90
16060;DHT22;8134;49.552;7.632;2022-10-16T18:08:29;16.30;99.90
16060;DHT22;8134;49.552;7.632;2022-10-16T18:10:54;16.30;99.90
16060;DHT22;8134;49.552;7.632;2022-10-16T18:13:20;16.30;99.90
16060;DHT22;8134;49.552;7.632;2022-10-16T18:15:46;16.30;99.90
16060;DHT22;8134;49.552;7.632;2022-10-16T18:18:11;16.30;99.90
16060;DHT22;8134;49.552;7.632;2022-10-16T18:20:37;16.30;99.90
16060;DHT22;8134;49.552;7.632;2022-10-16T18:23:03;16.30;99.90
16060;DHT22;8134;49.552;7.632;2022-10-16T18:25:28;16.20;99.90
16060;DHT22;8134;49.552;7.632;2022-10-16T18:27:54;16.20;99.90
16060;DHT22;8134;49.552;7.632;2022-10-16T18:30:19;16.10;99.90
16060;DHT22;8134;49.552;7.632;2022-10-16T18:32:44;16.10;99.90
16060;DHT22;8134;49.552;7.632;2022-10-16T18:35:10;16.00;99.90
16060;DHT22;8134;49.552;7.632;2022-10-16T18:37:35;16.10;99.90
16060;DHT22;8134;49.552;7.632;2022-10-16T18:40:02;16.00;99.90
16060;DHT22;8134;49.552;7.632;2022-10-16T18:42:28;16.00;99.90
16060;DHT22;8134;49.552;7.632;2022-10-16T18:44:53;16.10;99.90
16060;DHT22;8134;49.552;7.632;2022-10-16T18:47:19;16.10;99.90
16060;DHT22;8134;49.552;7.632;2022-10-16T18:49:47;16.10;99.90
16060;DHT22;8134;49.552;7.632;2022-10-16T18:52:12;16.10;99.90
16060;DHT22;8134;49.552;7.632;2022-10-16T18:54:38;16.00;99.90
16060;DHT22;8134;49.552;7.632;2022-10-16T18:57:03;16.00;99.90
16060;DHT22;8134;49.552;7.632;2022-10-16T18:59:29;15.90;99.90
16060;DHT22;8134;49.552;7.632;2022-10-16T19:01:54;15.90;99.90
16060;DHT22;8134;49.552;7.632;2022-10-16T19:04:20;15.80;99.90
16060;DHT22;8134;49.552;7.632;2022-10-16T19:06:48;15.80;99.90
16060;DHT22;8134;49.552;7.632;2022-10-16T19:09:14;15.80;99.90
16060;DHT22;8134;49.552;7.632;2022-10-16T19:11:40;15.80;99.90
16060;DHT22;8134;49.552;7.632;2022-10-16T19:14:06;15.80;99.90
16060;DHT22;8134;49.552;7.632;2022-10-16T19:16:33;15.80;99.90
16060;DHT22;8134;49.552;7.632;2022-10-16T19:18:59;15.80;99.90
16060;DHT22;8134;49.552;7.632;2022-10-16T19:21:26;15.70;99.90
16060;DHT22;8134;49.552;7.632;2022-10-16T19:23:52;15.70;99.90
16060;DHT22;8134;49.552;7.632;2022-10-16T19:26:18;15.70;99.90
16060;DHT22;8134;49.552;7.632;2022-10-16T19:28:43;15.60;99.90
16060;DHT22;8134;49.552;7.632;2022-10-16T19:31:10;15.60;99.90
16060;DHT22;8134;49.552;7.632;2022-10-16T19:33:36;15.60;99.90
16060;DHT22;8134;49.552;7.632;2022-10-16T19:36:13;15.60;99.90
16060;DHT22;8134;49.552;7.632;2022-10-16T19:38:39;15.50;99.90
16060;DHT22;8134;49.552;7.632;2022-10-16T19:41:15;15.50;99.90
16060;DHT22;8134;49.552;7.632;2022-10-16T19:43:40;15.50;99.90
16060;DHT22;8134;49.552;7.632;2022-10-16T19:46:07;15.40;99.90
16060;DHT22;8134;49.552;7.632;2022-10-16T19:48:33;15.30;99.90
16060;DHT22;8134;49.552;7.632;2022-10-16T19:50:59;15.40;99.90
16060;DHT22;8134;49.552;7.632;2022-10-16T19:53:25;15.30;99.90
16060;DHT22;8134;49.552;7.632;2022-10-16T19:55:53;15.40;99.90
16060;DHT22;8134;49.552;7.632;2022-10-16T19:58:18;15.30;99.90
16060;DHT22;8134;49.552;7.632;2022-10-16T20:00:44;15.20;99.90
16060;DHT22;8134;49.552;7.632;2022-10-16T20:03:09;15.10;99.90
16060;DHT22;8134;49.552;7.632;2022-10-16T20:05:35;15.20;99.90
16060;DHT22;8134;49.552;7.632;2022-10-16T20:08:00;15.10;99.90
16060;DHT22;8134;49.552;7.632;2022-10-16T20:10:26;15.00;99.90
16060;DHT22;8134;49.552;7.632;2022-10-16T20:12:51;15.00;99.90
16060;DHT22;8134;49.552;7.632;2022-10-16T20:15:17;15.00;99.90
16060;DHT22;8134;49.552;7.632;2022-10-16T20:17:42;14.90;99.90
16060;DHT22;8134;49.552;7.632;2022-10-16T20:20:08;14.90;99.90
16060;DHT22;8134;49.552;7.632;2022-10-16T20:22:33;14.90;99.90
16060;DHT22;8134;49.552;7.632;2022-10-16T20:24:59;14.90;99.90
16060;DHT22;8134;49.552;7.632;2022-10-16T20:27:24;14.90;99.90
16060;DHT22;8134;49.552;7.632;2022-10-16T20:29:50;14.90;99.90
16060;DHT22;8134;49.552;7.632;2022-10-16T20:32:16;14.90;99.90
16060;DHT22;8134;49.552;7.632;2022-10-16T20:34:41;14.80;99.90
16060;DHT22;8134;49.552;7.632;2022-10-16T20:37:10;14.80;99.90
16060;DHT22;8134;49.552;7.632;2022-10-16T20:39:36;14.80;99.90
16060;DHT22;8134;49.552;7.632;2022-10-16T20:42:01;14.70;99.90
16060;DHT22;8134;49.552;7.632;2022-10-16T20:44:27;14.70;99.90
16060;DHT22;8134;49.552;7.632;2022-10-16T20:46:55;14.70;99.90
16060;DHT22;8134;49.552;7.632;2022-10-16T20:49:21;14.70;99.90
16060;DHT22;8134;49.552;7.632;2022-10-16T20:51:46;14.70;99.90
16060;DHT22;8134;49.552;7.632;2022-10-16T20:54:14;14.70;99.90
16060;DHT22;8134;49.552;7.632;2022-10-16T20:56:40;14.60;99.90
16060;DHT22;8134;49.552;7.632;2022-10-16T20:59:06;14.60;99.90
16060;DHT22;8134;49.552;7.632;2022-10-16T21:01:33;14.70;99.90
16060;DHT22;8134;49.552;7.632;2022-10-16T21:04:01;14.70;99.90
16060;DHT22;8134;49.552;7.632;2022-10-16T21:06:28;14.80;99.90
16060;DHT22;8134;49.552;7.632;2022-10-16T21:08:55;14.70;99.90
16060;DHT22;8134;49.552;7.632;2022-10-16T21:11:24;14.70;99.90
16060;DHT22;8134;49.552;7.632;2022-10-16T21:13:57;14.70;99.90
16060;DHT22;8134;49.552;7.632;2022-10-16T21:16:24;14.70;99.90
16060;DHT22;8134;49.552;7.632;2022-10-16T21:18:49;14.70;99.90
16060;DHT22;8134;49.552;7.632;2022-10-16T21:21:22;14.70;99.90
16060;DHT22;8134;49.552;7.632;2022-10-16T21:23:48;14.70;99.90
16060;DHT22;8134;49.552;7.632;2022-10-16T21:26:14;14.60;99.90
16060;DHT22;8134;49.552;7.632;2022-10-16T21:28:40;14.50;99.90
16060;DHT22;8134;49.552;7.632;2022-10-16T21:31:13;14.50;99.90
16060;DHT22;8134;49.552;7.632;2022-10-16T21:33:38;14.50;99.90
16060;DHT22;8134;49.552;7.632;2022-10-16T21:36:17;14.40;99.90
16060;DHT22;8134;49.552;7.632;2022-10-16T21:38:46;14.50;99.90
16060;DHT22;8134;49.552;7.632;2022-10-16T21:41:18;14.50;99.90
16060;DHT22;8134;49.552;7.632;2022-10-16T21:43:44;14.40;99.90
16060;DHT22;8134;49.552;7.632;2022-10-16T21:46:10;14.30;99.90
16060;DHT22;8134;49.552;7.632;2022-10-16T21:48:36;14.30;99.90
16060;DHT22;8134;49.552;7.632;2022-10-16T21:51:01;14.20;99.90
16060;DHT22;8134;49.552;7.632;2022-10-16T21:53:27;14.20;99.90
16060;DHT22;8134;49.552;7.632;2022-10-16T21:55:52;14.10;99.90
16060;DHT22;8134;49.552;7.632;2022-10-16T21:58:18;14.10;99.90
16060;DHT22;8134;49.552;7.632;2022-10-16T22:00:43;14.10;99.90
16060;DHT22;8134;49.552;7.632;2022-10-16T22:03:09;14.20;99.90
16060;DHT22;8134;49.552;7.632;2022-10-16T22:05:34;14.30;99.90
16060;DHT22;8134;49.552;7.632;2022-10-16T22:08:00;14.20;99.90
16060;DHT22;8134;49.552;7.632;2022-10-16T22:10:25;14.10;99.90
16060;DHT22;8134;49.552;7.632;2022-10-16T22:12:51;14.10;99.90
16060;DHT22;8134;49.552;7.632;2022-10-16T22:15:16;14.00;99.90
16060;DHT22;8134;49.552;7.632;2022-10-16T22:17:41;14.00;99.90
16060;DHT22;8134;49.552;7.632;2022-10-16T22:20:07;14.00;99.90
16060;DHT22;8134;49.552;7.632;2022-10-16T22:22:33;14.10;99.90
16060;DHT22;8134;49.552;7.632;2022-10-16T22:24:59;14.10;99.90
16060;DHT22;8134;49.552;7.632;2022-10-16T22:27:24;14.20;99.90
16060;DHT22;8134;49.552;7.632;2022-10-16T22:29:50;14.20;99.90
16060;DHT22;8134;49.552;7.632;2022-10-16T22:32:16;14.10;99.90
16060;DHT22;8134;49.552;7.632;2022-10-16T22:34:42;14.00;99.90
16060;DHT22;8134;49.552;7.632;2022-10-16T22:37:07;13.90;99.90
16060;DHT22;8134;49.552;7.632;2022-10-16T22:39:32;13.90;99.90
16060;DHT22;8134;49.552;7.632;2022-10-16T22:41:58;13.90;99.90
16060;DHT22;8134;49.552;7.632;2022-10-16T22:44:24;13.90;99.90
16060;DHT22;8134;49.552;7.632;2022-10-16T22:46:49;14.00;99.90
